Time;durP1;ratioP1;P1;durP2;ratioP2;P2;SDS_P1;SDS_P2;PMS_P1;PMS_P2;Temp;Humidity;BMP_temperature;BMP_pressure;BME280_temperature;BME280_humidity;BME280_pressure;Samples;Min_cycle;Max_cycle;Signal;HPM_P1;HPM_P2
2023/10/15 00:00:40;;;;;;;46.08;24.33;;;17.90;76.10;;;;;;5058499;28;20075;-66
2023/10/15 00:03:07;;;;;;;41.03;22.17;;;17.90;76.10;;;;;;5058991;28;20427;-66
2023/10/15 00:05:33;;;;;;;34.75;19.23;;;17.90;76.20;;;;;;5058333;28;20155;-66
2023/10/15 00:08:00;;;;;;;37.63;19.83;;;17.70;76.40;;;;;;5058892;28;20053;-66
2023/10/15 00:10:30;;;;;;;36.88;19.08;;;17.70;76.60;;;;;;5058188;28;20032;-66
2023/10/15 00:12:59;;;;;;;38.22;21.70;;;17.70;76.70;;;;;;5058281;28;20021;-66
2023/10/15 00:15:28;;;;;;;38.25;21.02;;;17.70;76.80;;;;;;5058412;28;20025;-66
2023/10/15 00:18:01;;;;;;;34.88;19.75;;;17.70;76.90;;;;;;5040891;28;20024;-66
2023/10/15 00:20:31;;;;;;;35.58;20.42;;;17.70;76.80;;;;;;5041557;28;20108;-66
2023/10/15 00:23:04;;;;;;;32.65;18.85;;;17.70;76.70;;;;;;5041802;28;20232;-66
2023/10/15 00:25:37;;;;;;;31.67;19.63;;;17.70;76.60;;;;;;5058376;28;20112;-66
2023/10/15 00:28:11;;;;;;;32.65;19.25;;;17.60;76.60;;;;;;5057880;28;20029;-66
2023/10/15 00:30:41;;;;;;;30.77;18.90;;;17.60;76.70;;;;;;5058057;28;20032;-66
2023/10/15 00:33:11;;;;;;;34.58;19.05;;;17.60;76.70;;;;;;5058084;28;20331;-66
2023/10/15 00:35:40;;;;;;;39.33;21.02;;;17.60;76.70;;;;;;5057623;28;20080;-66
2023/10/15 00:38:43;;;;;;;34.17;20.33;;;17.60;76.70;;;;;;5058048;28;20029;-66
2023/10/15 00:41:07;;;;;;;36.15;19.02;;;17.60;76.70;;;;;;5054499;28;20028;-66
2023/10/15 00:43:36;;;;;;;45.85;21.35;;;17.50;76.60;;;;;;5057682;28;20039;-66
2023/10/15 00:46:13;;;;;;;36.58;19.52;;;17.40;76.60;;;;;;5057464;28;20053;-66
2023/10/15 00:48:39;;;;;;;42.20;20.55;;;17.40;76.70;;;;;;5057536;28;20464;-66
2023/10/15 00:51:11;;;;;;;40.13;21.52;;;17.40;76.90;;;;;;5040277;28;20138;-66
2023/10/15 00:53:51;;;;;;;35.17;19.42;;;17.30;76.90;;;;;;5056425;28;20040;-66
2023/10/15 00:56:22;;;;;;;35.05;21.23;;;17.40;77.10;;;;;;5058016;28;20036;-66
2023/10/15 00:59:13;;;;;;;33.63;18.92;;;17.40;77.20;;;;;;5057348;28;20029;-66
2023/10/15 01:01:42;;;;;;;36.65;20.50;;;17.40;77.20;;;;;;5057591;28;20343;-66
2023/10/15 01:04:24;;;;;;;34.80;19.42;;;17.30;77.20;;;;;;5057211;28;20129;-66
2023/10/15 01:06:51;;;;;;;33.05;19.52;;;17.30;77.20;;;;;;5057244;28;20044;-66
2023/10/15 01:09:37;;;;;;;31.98;19.63;;;17.30;77.30;;;;;;5057691;28;20449;-66
2023/10/15 01:12:19;;;;;;;32.58;19.17;;;17.30;77.30;;;;;;5057712;28;20025;-66
2023/10/15 01:14:48;;;;;;;33.60;20.60;;;17.30;77.30;;;;;;5057002;28;20037;-66
2023/10/15 01:17:14;;;;;;;36.60;21.10;;;17.30;77.20;;;;;;5057033;28;20508;-65
2023/10/15 01:19:40;;;;;;;49.53;24.38;;;17.30;77.20;;;;;;5057352;28;20029;-66
2023/10/15 01:22:08;;;;;;;49.55;23.65;;;17.20;77.20;;;;;;5056996;28;20059;-66
2023/10/15 01:24:36;;;;;;;50.17;24.38;;;17.20;77.10;;;;;;5057162;28;20025;-66
2023/10/15 01:27:09;;;;;;;48.20;23.05;;;17.10;77.30;;;;;;5057399;28;20025;-66
2023/10/15 01:29:40;;;;;;;49.78;23.83;;;17.00;77.30;;;;;;5057022;28;20083;-66
2023/10/15 01:32:10;;;;;;;43.28;22.33;;;17.00;77.40;;;;;;5057294;28;20025;-66
2023/10/15 01:34:37;;;;;;;46.78;23.20;;;17.00;77.50;;;;;;5040295;28;20382;-66
2023/10/15 01:37:15;;;;;;;40.88;21.08;;;17.00;77.50;;;;;;5039379;28;20025;-66
2023/10/15 01:39:47;;;;;;;35.67;20.40;;;17.00;77.60;;;;;;5056953;28;20024;-66
2023/10/15 01:47:57;;;;;;;34.47;19.63;;;16.90;77.60;;;;;;5056514;28;20462;-66
2023/10/15 01:51:12;;;;;;;34.15;18.88;;;17.00;77.60;;;;;;5056627;28;20029;-66
2023/10/15 01:53:13;;;;;;;32.30;18.88;;;16.90;77.60;;;;;;5045488;28;20037;-66
2023/10/15 01:55:52;;;;;;;33.25;17.67;;;16.90;77.60;;;;;;5056055;28;20067;-66
2023/10/15 01:58:27;;;;;;;30.05;18.02;;;16.90;77.70;;;;;;5056543;28;20056;-66
2023/10/15 02:00:55;;;;;;;36.58;17.52;;;16.90;77.70;;;;;;5056116;28;20021;-66
2023/10/15 02:03:21;;;;;;;31.00;17.13;;;16.90;77.60;;;;;;5056166;28;20025;-66
2023/10/15 02:05:54;;;;;;;30.33;17.95;;;17.00;78.50;;;;;;5055999;28;20021;-66
2023/10/15 02:08:24;;;;;;;36.08;19.92;;;17.20;78.20;;;;;;5056352;28;20048;-66
2023/10/15 02:10:52;;;;;;;32.65;18.20;;;17.30;77.50;;;;;;5056151;28;20021;-66
2023/10/15 02:13:21;;;;;;;32.25;19.13;;;17.40;77.30;;;;;;5056177;28;20041;-66
2023/10/15 02:15:50;;;;;;;32.97;18.88;;;17.40;76.90;;;;;;5055934;28;20457;-66
2023/10/15 02:18:19;;;;;;;33.65;19.15;;;17.40;76.80;;;;;;5056176;28;20422;-65
2023/10/15 02:23:20;;;;;;;33.65;18.63;;;17.20;77.00;;;;;;5056356;28;20328;-66
2023/10/15 02:25:48;;;;;;;30.83;18.13;;;17.10;76.90;;;;;;5056051;28;20017;-66
2023/10/15 02:28:20;;;;;;;29.30;17.88;;;17.10;76.90;;;;;;5055653;28;20430;-66
2023/10/15 02:30:48;;;;;;;31.50;19.00;;;17.00;76.90;;;;;;5038931;28;20020;-66
2023/10/15 02:33:16;;;;;;;37.13;20.38;;;16.90;76.90;;;;;;5038115;28;20120;-66
2023/10/15 02:35:45;;;;;;;35.95;20.65;;;16.90;77.20;;;;;;5056282;28;20047;-66
2023/10/15 02:38:13;;;;;;;33.03;19.20;;;16.80;77.20;;;;;;5055828;28;20037;-66
2023/10/15 02:43:53;;;;;;;;;;;16.70;77.70;;;;;;4995126;28;20037;-66
2023/10/15 02:49:00;;;;;;;39.40;21.88;;;16.60;77.80;;;;;;4994418;28;20046;-66
2023/10/15 02:51:35;;;;;;;40.40;20.35;;;16.60;77.70;;;;;;4994430;28;20038;-66
2023/10/15 02:54:36;;;;;;;41.42;22.15;;;16.50;77.30;;;;;;4994308;28;20464;-66
2023/10/15 02:57:05;;;;;;;40.03;20.88;;;16.40;77.30;;;;;;4994315;28;20046;-65
2023/10/15 02:59:31;;;;;;;43.92;23.60;;;16.30;77.50;;;;;;4994210;28;20148;-66
2023/10/15 03:02:06;;;;;;;44.60;24.40;;;16.20;77.80;;;;;;4994468;28;20458;-65
2023/10/15 03:04:37;;;;;;;42.08;23.38;;;16.20;78.20;;;;;;4994173;28;20037;-65
2023/10/15 03:09:56;;;;;;;44.67;24.23;;;16.00;78.60;;;;;;4994743;28;20498;-65
2023/10/15 03:12:24;;;;;;;44.97;24.88;;;15.90;79.30;;;;;;4994224;28;20030;-66
2023/10/15 03:14:54;;;;;;;38.80;22.02;;;15.80;79.50;;;;;;5034393;28;20032;-66
2023/10/15 03:17:29;;;;;;;36.80;21.20;;;15.80;79.30;;;;;;5057520;28;20029;-66
2023/10/15 03:20:48;;;;;;;39.50;22.67;;;15.70;79.30;;;;;;5059133;28;20025;-66
2023/10/15 03:22:51;;;;;;;35.80;20.42;;;15.70;79.30;;;;;;5050979;28;20029;-66
2023/10/15 03:25:20;;;;;;;34.30;19.35;;;15.70;79.30;;;;;;5059092;28;20077;-66
2023/10/15 03:27:46;;;;;;;33.45;20.63;;;15.70;79.10;;;;;;5058968;28;20064;-65
2023/10/15 03:30:13;;;;;;;35.88;20.98;;;15.70;79.10;;;;;;5041442;28;20025;-66
2023/10/15 03:35:38;;;;;;;41.55;22.05;;;15.80;79.20;;;;;;4978882;28;20031;-65
2023/10/15 03:38:13;;;;;;;50.43;25.90;;;15.80;79.30;;;;;;4978662;28;20039;-65
2023/10/15 03:40:50;;;;;;;46.45;22.50;;;15.80;79.10;;;;;;4962253;28;20031;-65
2023/10/15 03:43:21;;;;;;;45.78;22.67;;;15.80;79.00;;;;;;4978350;28;20034;-65
2023/10/15 03:45:50;;;;;;;60.58;26.15;;;15.80;79.20;;;;;;4978280;28;20142;-65
2023/10/15 03:48:22;;;;;;;47.05;22.55;;;15.80;79.40;;;;;;4978541;28;20392;-65
2023/10/15 03:50:54;;;;;;;45.42;23.35;;;15.80;79.60;;;;;;4978201;28;20066;-65
2023/10/15 03:53:35;;;;;;;43.90;24.07;;;15.70;79.30;;;;;;4978931;28;20433;-65
2023/10/15 03:56:08;;;;;;;39.67;22.60;;;15.70;79.20;;;;;;4978112;28;20560;-65
2023/10/15 03:58:34;;;;;;;33.97;20.23;;;15.70;79.00;;;;;;4978631;28;20027;-65
2023/10/15 04:01:20;;;;;;;32.35;18.55;;;15.60;79.10;;;;;;4961787;28;20421;-65
2023/10/15 04:03:49;;;;;;;39.85;21.23;;;15.60;79.10;;;;;;4978056;28;20039;-65
2023/10/15 04:06:17;;;;;;;39.67;21.92;;;15.70;78.90;;;;;;4978112;28;20460;-65
2023/10/15 04:11:30;;;;;;;40.90;21.17;;;15.60;78.80;;;;;;4982199;28;20412;-65
2023/10/15 04:14:13;;;;;;;38.00;21.15;;;15.50;79.10;;;;;;5038216;28;20439;-65
2023/10/15 04:16:41;;;;;;;48.70;25.10;;;15.50;79.20;;;;;;5037831;28;20100;-65
2023/10/15 04:19:08;;;;;;;45.72;25.67;;;15.50;80.00;;;;;;5037315;28;20022;-65
2023/10/15 04:21:38;;;;;;;39.88;22.17;;;15.40;80.20;;;;;;5037339;28;20022;-65
2023/10/15 04:24:06;;;;;;;35.35;19.55;;;15.40;79.90;;;;;;5038134;28;20037;-65
2023/10/15 04:26:35;;;;;;;37.58;21.20;;;15.40;79.60;;;;;;5038064;28;20026;-66
2023/10/15 04:29:30;;;;;;;39.65;22.48;;;15.40;79.50;;;;;;5036880;28;20078;-66
2023/10/15 04:32:08;;;;;;;36.03;19.35;;;15.30;79.50;;;;;;5036256;28;20056;-65
2023/10/15 04:34:36;;;;;;;33.45;19.25;;;15.30;79.60;;;;;;5037841;28;20067;-65
2023/10/15 04:37:16;;;;;;;30.80;18.52;;;15.30;79.80;;;;;;5037887;28;20439;-65
2023/10/15 04:39:52;;;;;;;33.67;18.63;;;15.30;79.70;;;;;;5038100;28;20022;-65
2023/10/15 04:42:29;;;;;;;28.45;17.77;;;15.30;79.90;;;;;;5038380;28;20108;-65
2023/10/15 04:44:56;;;;;;;33.05;17.58;;;15.30;79.90;;;;;;5038071;28;20120;-65
2023/10/15 04:47:30;;;;;;;38.13;19.90;;;15.30;79.70;;;;;;5054337;28;20049;-65
2023/10/15 04:49:57;;;;;;;34.92;19.90;;;15.30;79.50;;;;;;5057504;28;20035;-65
2023/10/15 04:52:27;;;;;;;37.53;20.92;;;15.30;79.50;;;;;;5057513;28;20036;-65
2023/10/15 04:54:55;;;;;;;33.83;19.05;;;15.30;79.40;;;;;;5057450;28;20442;-65
2023/10/15 04:57:23;;;;;;;33.80;19.33;;;15.20;79.60;;;;;;5057730;28;20037;-65
2023/10/15 04:59:49;;;;;;;41.80;21.60;;;15.20;79.50;;;;;;5057355;28;20071;-65
2023/10/15 05:02:15;;;;;;;34.15;19.42;;;15.10;79.70;;;;;;5039958;28;20072;-65
2023/10/15 05:04:42;;;;;;;35.10;20.63;;;15.10;79.60;;;;;;5057324;28;20056;-66
2023/10/15 05:07:08;;;;;;;43.47;22.42;;;15.10;80.20;;;;;;5057282;28;20127;-66
2023/10/15 05:09:39;;;;;;;44.50;23.08;;;15.10;80.90;;;;;;5057227;28;20025;-66
2023/10/15 05:12:13;;;;;;;43.42;23.13;;;15.10;81.20;;;;;;5057090;28;20111;-66
2023/10/15 05:14:39;;;;;;;;;;;15.10;81.00;;;;;;5057454;28;20111;-66
2023/10/15 05:17:05;;;;;;;37.75;19.67;;;15.10;81.70;;;;;;5057110;28;19995;-65
2023/10/15 05:19:31;;;;;;;41.47;21.23;;;15.20;81.20;;;;;;5056977;28;20067;-65
2023/10/15 05:21:57;;;;;;;35.97;19.15;;;15.20;80.60;;;;;;5057511;28;20029;-65
2023/10/15 05:24:24;;;;;;;44.63;22.85;;;15.20;80.40;;;;;;5057503;28;20028;-66
2023/10/15 05:26:50;;;;;;;43.47;23.90;;;15.20;80.50;;;;;;5056899;28;20028;-65
2023/10/15 05:29:16;;;;;;;43.40;24.83;;;15.20;80.90;;;;;;5057311;28;20025;-65
2023/10/15 05:31:43;;;;;;;56.00;27.75;;;15.20;80.90;;;;;;5057054;28;20098;-65
2023/10/15 05:34:09;;;;;;;55.72;28.58;;;15.30;81.00;;;;;;5039202;28;20114;-65
2023/10/15 05:36:38;;;;;;;45.92;24.20;;;15.30;81.30;;;;;;5056718;28;20028;-65
2023/10/15 05:39:04;;;;;;;47.65;24.45;;;15.30;81.10;;;;;;5056079;28;20020;-65
2023/10/15 05:41:34;;;;;;;46.55;24.35;;;15.30;80.90;;;;;;5039070;28;20381;-65
2023/10/15 05:44:03;;;;;;;45.80;24.88;;;15.40;80.90;;;;;;5056470;28;20037;-65
2023/10/15 05:46:30;;;;;;;47.42;25.17;;;15.40;81.00;;;;;;5056262;28;20524;-65
2023/10/15 05:48:57;;;;;;;51.05;25.33;;;15.40;81.10;;;;;;5056491;28;20056;-65
2023/10/15 05:51:23;;;;;;;54.55;25.73;;;15.50;81.00;;;;;;5039335;28;20028;-65
2023/10/15 05:53:51;;;;;;;49.97;26.13;;;15.60;81.00;;;;;;5056305;28;20408;-65
2023/10/15 05:56:18;;;;;;;49.45;27.08;;;15.60;81.00;;;;;;5056916;28;20071;-65
2023/10/15 05:58:45;;;;;;;52.88;27.67;;;15.60;81.00;;;;;;5056223;28;20025;-65
2023/10/15 06:01:11;;;;;;;55.58;27.95;;;15.70;80.90;;;;;;5056179;28;20067;-66
2023/10/15 06:03:37;;;;;;;56.67;27.58;;;15.80;80.80;;;;;;5056190;28;20037;-66
2023/10/15 06:06:05;;;;;;;57.58;29.02;;;15.90;80.90;;;;;;5056404;28;20100;-66
2023/10/15 06:08:31;;;;;;;51.47;25.90;;;15.90;81.00;;;;;;5056046;28;20029;-66
2023/10/15 06:10:57;;;;;;;44.03;23.85;;;16.00;80.80;;;;;;5056274;28;20016;-66
2023/10/15 06:13:26;;;;;;;42.22;23.90;;;16.00;80.80;;;;;;5056039;28;20029;-65
2023/10/15 06:15:52;;;;;;;41.60;23.20;;;16.10;80.80;;;;;;5055956;28;20060;-65
2023/10/15 06:18:17;;;;;;;47.50;24.90;;;16.20;80.90;;;;;;5055968;28;20053;-66
2023/10/15 06:20:47;;;;;;;44.58;23.40;;;16.30;81.00;;;;;;5055808;28;20377;-66
2023/10/15 06:23:13;;;;;;;46.42;23.48;;;16.40;80.80;;;;;;5038310;28;20082;-65
2023/10/15 06:25:42;;;;;;;41.72;22.77;;;16.40;80.80;;;;;;5056053;28;20033;-65
2023/10/15 06:28:14;;;;;;;45.00;23.08;;;16.60;80.80;;;;;;5055680;28;20029;-65
2023/10/15 06:33:05;;;;;;;45.95;23.83;;;16.80;80.70;;;;;;5056502;28;20025;-65
2023/10/15 06:35:32;;;;;;;39.50;21.92;;;16.90;80.70;;;;;;5055553;28;20082;-66
2023/10/15 06:37:58;;;;;;;44.20;23.23;;;16.90;80.70;;;;;;5055603;28;20028;-66
2023/10/15 06:40:26;;;;;;;40.08;22.58;;;17.00;80.50;;;;;;5055806;28;20017;-65
2023/10/15 06:43:01;;;;;;;40.80;22.42;;;17.10;80.30;;;;;;5055377;28;20025;-66
2023/10/15 06:45:28;;;;;;;36.55;21.20;;;17.20;80.30;;;;;;5055822;28;20037;-66
2023/10/15 06:47:57;;;;;;;35.97;20.60;;;17.20;80.40;;;;;;5055499;28;20028;-66
2023/10/15 06:50:23;;;;;;;38.50;20.48;;;17.40;80.40;;;;;;5055149;28;20052;-65
2023/10/15 06:52:52;;;;;;;35.25;19.88;;;17.40;80.70;;;;;;5054844;28;20025;-65
2023/10/15 06:55:21;;;;;;;36.78;21.45;;;17.60;80.50;;;;;;5055288;28;20025;-66
2023/10/15 06:57:48;;;;;;;37.70;21.40;;;17.80;80.30;;;;;;5055370;28;20021;-66
2023/10/15 07:00:25;;;;;;;33.65;20.83;;;17.90;80.20;;;;;;5055553;28;20033;-66
2023/10/15 07:02:53;;;;;;;34.97;20.60;;;18.00;80.00;;;;;;5037750;28;20422;-66
2023/10/15 07:05:20;;;;;;;37.00;20.48;;;18.10;79.90;;;;;;5021241;28;20327;-66
2023/10/15 07:07:47;;;;;;;35.05;20.05;;;18.20;79.90;;;;;;5055761;28;20067;-67
2023/10/15 07:10:17;;;;;;;31.90;19.15;;;18.40;79.80;;;;;;5055503;28;20032;-66
2023/10/15 07:12:47;;;;;;;31.63;19.05;;;18.60;79.50;;;;;;5055174;28;20025;-66
2023/10/15 07:15:15;;;;;;;31.27;18.15;;;18.80;79.10;;;;;;5055030;28;20029;-67
2023/10/15 07:17:44;;;;;;;30.40;17.13;;;19.00;78.70;;;;;;5021615;28;20021;-66
2023/10/15 07:20:26;;;;;;;30.88;17.85;;;19.20;78.20;;;;;;5055029;28;20048;-66
2023/10/15 07:22:56;;;;;;;25.75;15.85;;;19.40;77.80;;;;;;5037567;28;20033;-66
2023/10/15 07:25:24;;;;;;;29.90;17.45;;;19.60;77.20;;;;;;5055322;28;20024;-66
2023/10/15 07:27:50;;;;;;;25.48;16.48;;;19.80;76.70;;;;;;5055306;28;20036;-66
2023/10/15 07:30:21;;;;;;;27.63;16.90;;;19.90;76.30;;;;;;5054979;28;20021;-66
2023/10/15 07:32:53;;;;;;;27.63;16.92;;;19.90;75.80;;;;;;5055574;28;20025;-66
2023/10/15 07:35:29;;;;;;;25.40;16.77;;;20.00;75.70;;;;;;5054844;28;20079;-66
2023/10/15 07:38:01;;;;;;;29.35;17.02;;;20.10;75.50;;;;;;5055463;28;20052;-66
2023/10/15 07:40:37;;;;;;;28.08;17.13;;;20.20;75.40;;;;;;5054816;28;20028;-66
2023/10/15 07:43:03;;;;;;;26.33;15.75;;;20.20;75.10;;;;;;5054766;28;20021;-66
2023/10/15 07:45:31;;;;;;;28.02;17.80;;;20.40;74.90;;;;;;5054626;28;20066;-66
2023/10/15 07:48:00;;;;;;;25.10;16.13;;;20.40;74.50;;;;;;5055170;28;20051;-66
2023/10/15 07:50:27;;;;;;;26.80;17.15;;;20.50;74.30;;;;;;5054719;28;20104;-66
2023/10/15 07:52:56;;;;;;;27.35;17.58;;;20.60;74.10;;;;;;5055566;28;20049;-66
2023/10/15 07:55:26;;;;;;;25.77;16.83;;;20.70;74.00;;;;;;5037138;28;20354;-66
2023/10/15 08:02:46;;;;;;;26.25;17.30;;;20.80;73.40;;;;;;5056480;28;20025;-66
2023/10/15 08:05:12;;;;;;;28.85;16.88;;;20.90;73.30;;;;;;5059002;28;20049;-67
2023/10/15 08:07:41;;;;;;;28.08;17.77;;;20.90;73.30;;;;;;5058958;28;20025;-66
2023/10/15 08:10:08;;;;;;;25.52;16.98;;;21.00;73.30;;;;;;5058579;28;20017;-67
2023/10/15 08:12:38;;;;;;;28.13;17.73;;;21.00;73.10;;;;;;5058564;28;20028;-66
2023/10/15 08:15:08;;;;;;;24.27;16.05;;;21.10;73.10;;;;;;5058077;28;20025;-66
2023/10/15 08:17:36;;;;;;;23.85;15.57;;;21.20;72.90;;;;;;5058216;28;20032;-66
2023/10/15 08:20:04;;;;;;;29.38;17.52;;;21.30;72.90;;;;;;5058033;28;20024;-66
2023/10/15 08:22:32;;;;;;;30.48;18.80;;;21.40;72.50;;;;;;5058055;28;20040;-66
2023/10/15 08:25:01;;;;;;;27.58;17.20;;;21.50;72.30;;;;;;5058089;28;20032;-66
2023/10/15 08:27:29;;;;;;;28.23;17.58;;;21.70;71.90;;;;;;5058495;28;20111;-67
2023/10/15 08:29:59;;;;;;;25.10;15.80;;;21.80;71.70;;;;;;5058302;28;20029;-67
2023/10/15 08:32:31;;;;;;;27.65;16.90;;;21.90;71.40;;;;;;5057945;28;20078;-67
2023/10/15 08:35:00;;;;;;;24.48;16.25;;;22.00;70.90;;;;;;5058325;28;20036;-66
2023/10/15 08:37:28;;;;;;;31.30;17.42;;;22.10;70.80;;;;;;5058336;28;20076;-66
2023/10/15 08:39:57;;;;;;;27.45;17.00;;;22.20;70.20;;;;;;5057679;28;20048;-66
2023/10/15 08:42:29;;;;;;;28.17;17.30;;;22.20;70.10;;;;;;5058262;28;20025;-66
2023/10/15 08:44:58;;;;;;;30.65;18.92;;;22.40;69.80;;;;;;5058298;28;20021;-67
2023/10/15 08:47:28;;;;;;;32.47;19.13;;;22.40;68.70;;;;;;5057573;28;20049;-67
2023/10/15 08:49:59;;;;;;;28.08;18.08;;;22.40;68.70;;;;;;5058686;28;20094;-66
2023/10/15 08:52:31;;;;;;;30.85;18.48;;;22.40;68.40;;;;;;5057501;28;20056;-66
2023/10/15 08:55:00;;;;;;;26.52;16.33;;;22.40;68.70;;;;;;5057469;28;20477;-66
2023/10/15 08:57:29;;;;;;;27.50;18.02;;;22.40;69.00;;;;;;5057481;28;20104;-67
2023/10/15 08:59:59;;;;;;;29.02;17.52;;;22.40;69.00;;;;;;5057336;28;20025;-67
2023/10/15 09:02:28;;;;;;;31.70;19.27;;;22.50;69.40;;;;;;5057396;28;20017;-66
2023/10/15 09:04:55;;;;;;;24.88;17.67;;;22.60;69.20;;;;;;5057874;28;20479;-67
2023/10/15 09:07:22;;;;;;;26.40;17.52;;;22.60;69.20;;;;;;5057300;28;20028;-67
2023/10/15 09:09:49;;;;;;;28.05;17.63;;;22.80;68.80;;;;;;5057140;28;20521;-67
2023/10/15 09:12:15;;;;;;;29.05;17.67;;;22.90;68.80;;;;;;5057199;28;20053;-67
2023/10/15 09:14:50;;;;;;;26.58;18.45;;;22.90;68.90;;;;;;5056833;28;20083;-67
2023/10/15 09:17:17;;;;;;;25.05;15.60;;;23.00;68.50;;;;;;5057169;28;20055;-67
2023/10/15 09:19:49;;;;;;;27.17;16.77;;;23.20;68.60;;;;;;5057292;28;20020;-67
2023/10/15 09:22:15;;;;;;;28.13;17.73;;;23.20;68.10;;;;;;5057604;28;20047;-67
2023/10/15 09:24:44;;;;;;;27.75;16.90;;;23.30;67.30;;;;;;5057237;28;20025;-67
2023/10/15 09:27:11;;;;;;;24.30;16.80;;;23.40;67.20;;;;;;5056895;28;20087;-67
2023/10/15 09:29:38;;;;;;;23.90;15.73;;;23.40;67.20;;;;;;5039690;28;20095;-67
2023/10/15 09:32:05;;;;;;;22.77;15.30;;;23.40;66.70;;;;;;5056749;28;20086;-67
2023/10/15 09:34:32;;;;;;;25.85;16.45;;;23.50;66.90;;;;;;5056949;28;20036;-67
2023/10/15 09:36:59;;;;;;;27.98;17.13;;;23.60;66.70;;;;;;5057256;28;20020;-67
2023/10/15 09:39:34;;;;;;;24.83;16.85;;;23.70;66.10;;;;;;5056880;28;20025;-67
2023/10/15 09:42:03;;;;;;;28.17;17.05;;;23.70;65.90;;;;;;5056563;28;20450;-67
2023/10/15 09:44:35;;;;;;;28.33;17.02;;;23.80;66.20;;;;;;5056581;28;20044;-67
2023/10/15 09:47:04;;;;;;;24.95;15.60;;;23.80;66.20;;;;;;5056221;28;20060;-67
2023/10/15 09:49:34;;;;;;;26.52;16.30;;;23.80;65.80;;;;;;5056682;28;20434;-67
2023/10/15 09:52:05;;;;;;;28.42;18.83;;;23.80;65.30;;;;;;5056434;28;20021;-67
2023/10/15 09:54:33;;;;;;;27.08;17.40;;;23.80;65.60;;;;;;5039840;28;20056;-67
2023/10/15 09:57:02;;;;;;;27.08;17.10;;;23.80;65.60;;;;;;5056286;28;20029;-67
2023/10/15 09:59:29;;;;;;;23.80;15.90;;;23.80;65.50;;;;;;5022456;28;20032;-67
2023/10/15 10:02:05;;;;;;;20.33;14.02;;;23.70;64.50;;;;;;5056289;28;20017;-67
2023/10/15 10:04:42;;;;;;;22.95;14.45;;;23.80;64.50;;;;;;5057060;28;20033;-67
2023/10/15 10:07:58;;;;;;;28.38;17.85;;;23.70;64.50;;;;;;5056482;28;20032;-67
2023/10/15 10:10:44;;;;;;;26.23;16.48;;;23.70;61.20;;;;;;4975645;28;20477;-67
2023/10/15 10:13:52;;;;;;;27.98;16.35;;;23.70;62.30;;;;;;4975625;28;20094;-67
2023/10/15 10:16:25;;;;;;;23.70;14.73;;;23.80;62.30;;;;;;4937102;29;20039;-67
2023/10/15 10:18:53;;;;;;;21.63;14.50;;;23.80;62.60;;;;;;4970810;28;20039;-67
2023/10/15 10:21:21;;;;;;;22.70;13.73;;;23.80;62.70;;;;;;4976155;28;20047;-67
2023/10/15 10:23:56;;;;;;;25.58;15.05;;;23.90;62.90;;;;;;4975423;28;20482;-67
2023/10/15 10:26:27;;;;;;;23.33;15.45;;;23.90;62.60;;;;;;4975288;28;20515;-67
2023/10/15 10:28:56;;;;;;;22.08;14.45;;;24.00;62.30;;;;;;4975700;28;20049;-67
2023/10/15 10:31:22;;;;;;;22.80;14.60;;;24.00;61.30;;;;;;4975189;28;20476;-67
2023/10/15 10:34:01;;;;;;;23.15;14.27;;;23.90;61.00;;;;;;4975645;28;20121;-67
2023/10/15 10:39:08;;;;;;;19.42;12.02;;;23.70;57.40;;;;;;4975501;28;20073;-67
2023/10/15 10:41:54;;;;;;;19.25;12.15;;;23.70;59.30;;;;;;4975134;28;20031;-67
2023/10/15 10:44:22;;;;;;;20.92;12.13;;;23.70;58.80;;;;;;4975725;28;20361;-67
2023/10/15 10:46:50;;;;;;;17.98;11.68;;;23.80;59.40;;;;;;4996838;28;20053;-67
2023/10/15 10:49:18;;;;;;;21.13;12.10;;;23.90;57.50;;;;;;5014927;28;20065;-67
2023/10/15 10:52:27;;;;;;;23.60;13.23;;;23.90;56.60;;;;;;5015823;28;20022;-67
2023/10/15 10:55:16;;;;;;;19.98;12.90;;;23.90;57.70;;;;;;4975055;28;20491;-67
2023/10/15 10:57:43;;;;;;;19.98;12.35;;;23.80;57.70;;;;;;4974949;28;20523;-67
2023/10/15 11:00:12;;;;;;;17.08;10.88;;;23.70;58.50;;;;;;4974929;28;20073;-67
2023/10/15 11:02:39;;;;;;;18.85;10.85;;;23.80;58.90;;;;;;4974992;28;20065;-67
2023/10/15 11:05:11;;;;;;;18.70;11.38;;;23.70;59.30;;;;;;4974976;28;20054;-67
2023/10/15 11:07:40;;;;;;;17.98;11.93;;;23.70;58.80;;;;;;4959384;28;20051;-67
2023/10/15 11:10:07;;;;;;;16.17;10.10;;;23.70;59.30;;;;;;4958584;28;20170;-67
2023/10/15 11:12:33;;;;;;;20.15;10.82;;;23.60;59.40;;;;;;4974897;28;20038;-67
2023/10/15 11:15:00;;;;;;;16.40;10.50;;;23.50;59.60;;;;;;4958588;28;20062;-67
2023/10/15 11:17:28;;;;;;;15.90;10.15;;;23.40;60.10;;;;;;4975478;28;20105;-67
2023/10/15 11:19:55;;;;;;;15.57;9.52;;;23.30;60.80;;;;;;4975286;28;20052;-67
2023/10/15 11:22:21;;;;;;;13.32;9.23;;;23.30;60.90;;;;;;4958704;28;20105;-67
2023/10/15 11:24:55;;;;;;;14.48;8.73;;;23.30;61.30;;;;;;4958818;28;20158;-67
2023/10/15 11:27:28;;;;;;;14.43;9.18;;;23.20;61.10;;;;;;4974691;28;20027;-67
2023/10/15 11:29:56;;;;;;;16.63;8.98;;;23.30;61.10;;;;;;4989131;28;20038;-67
2023/10/15 11:32:24;;;;;;;14.20;8.85;;;23.20;60.90;;;;;;5015344;28;20041;-67
2023/10/15 11:34:50;;;;;;;15.73;9.88;;;23.20;61.30;;;;;;5015535;28;20431;-67
2023/10/15 11:37:17;;;;;;;14.15;9.60;;;23.20;61.90;;;;;;5016481;28;20025;-67
2023/10/15 11:39:47;;;;;;;16.35;10.25;;;23.20;62.00;;;;;;5019190;28;20057;-67
2023/10/15 11:42:18;;;;;;;16.25;10.90;;;23.20;62.10;;;;;;5019448;28;20025;-67
2023/10/15 11:44:45;;;;;;;19.42;11.25;;;23.20;62.70;;;;;;5019479;28;20030;-67
2023/10/15 11:47:15;;;;;;;17.40;10.63;;;23.20;62.90;;;;;;5048359;28;20119;-67
2023/10/15 11:49:44;;;;;;;14.90;9.25;;;23.20;63.30;;;;;;5041196;28;20032;-67
2023/10/15 11:52:22;;;;;;;14.50;9.73;;;23.20;63.40;;;;;;5059297;28;20047;-67
2023/10/15 11:54:51;;;;;;;15.55;9.73;;;23.10;63.60;;;;;;5058933;28;20044;-67
2023/10/15 11:57:24;;;;;;;16.45;10.85;;;22.90;63.80;;;;;;5059207;28;20492;-67
2023/10/15 11:59:53;;;;;;;15.68;9.13;;;22.90;63.90;;;;;;5058572;28;20017;-67
2023/10/15 12:02:19;;;;;;;12.75;6.13;;;22.80;63.90;;;;;;5058539;28;20029;-67
2023/10/15 12:04:51;;;;;;;12.57;6.85;;;22.80;64.20;;;;;;5040964;28;20393;-67
2023/10/15 12:07:21;;;;;;;10.55;6.30;;;22.30;64.30;;;;;;5058758;28;20048;-67
2023/10/15 12:09:48;;;;;;;12.13;6.60;;;22.20;64.30;;;;;;5040725;28;20017;-67
2023/10/15 12:12:15;;;;;;;10.13;5.65;;;22.00;65.00;;;;;;5058315;28;20036;-67
2023/10/15 12:14:41;;;;;;;10.48;5.28;;;21.90;65.40;;;;;;5058233;28;20111;-67
2023/10/15 12:17:07;;;;;;;7.75;4.38;;;21.90;65.20;;;;;;5058283;28;20070;-67
2023/10/15 12:19:33;;;;;;;11.13;4.50;;;21.80;65.30;;;;;;5058165;28;20048;-67
2023/10/15 12:21:59;;;;;;;8.95;3.70;;;21.60;64.70;;;;;;5058161;28;20462;-67
2023/10/15 12:24:26;;;;;;;11.43;3.58;;;21.40;63.90;;;;;;5058128;28;20025;-67
2023/10/15 12:26:52;;;;;;;8.13;3.35;;;21.20;63.80;;;;;;5058019;28;20076;-67
2023/10/15 12:29:28;;;;;;;8.65;2.80;;;21.20;63.30;;;;;;5058000;28;20074;-67
2023/10/15 12:31:57;;;;;;;5.47;2.80;;;21.20;63.90;;;;;;5057903;28;20043;-67
2023/10/15 12:34:24;;;;;;;4.97;2.10;;;21.00;62.60;;;;;;5040310;28;20021;-67
2023/10/15 12:36:50;;;;;;;3.40;1.70;;;20.80;60.40;;;;;;5057843;28;20069;-67
2023/10/15 12:39:16;;;;;;;5.15;1.70;;;20.70;61.00;;;;;;5057798;28;20100;-67
2023/10/15 12:41:42;;;;;;;3.72;1.67;;;20.40;61.40;;;;;;5040254;28;20025;-67
2023/10/15 12:44:11;;;;;;;5.90;1.80;;;20.40;61.90;;;;;;5040150;28;20021;-67
2023/10/15 12:46:38;;;;;;;5.15;1.75;;;20.20;62.30;;;;;;5057398;28;20056;-66
2023/10/15 12:49:05;;;;;;;4.05;1.33;;;20.00;62.30;;;;;;5057105;28;20031;-66
2023/10/15 12:51:31;;;;;;;4.32;1.55;;;19.90;62.70;;;;;;5057873;28;20029;-66
2023/10/15 12:53:57;;;;;;;7.57;1.73;;;19.90;63.30;;;;;;5058035;28;20095;-66
2023/10/15 12:56:24;;;;;;;3.13;1.70;;;19.80;63.00;;;;;;5057526;28;20029;-66
2023/10/15 12:58:50;;;;;;;6.55;1.77;;;19.70;63.20;;;;;;5057396;28;20078;-66
2023/10/15 13:01:20;;;;;;;6.20;2.10;;;19.70;62.90;;;;;;5057884;28;20104;-66
2023/10/15 13:03:49;;;;;;;4.43;2.10;;;19.70;62.80;;;;;;5057606;28;20033;-66
2023/10/15 13:06:19;;;;;;;3.97;2.10;;;19.60;62.80;;;;;;5057373;28;20024;-66
2023/10/15 13:08:46;;;;;;;5.13;1.70;;;19.60;62.60;;;;;;5057514;28;20350;-67
2023/10/15 13:11:13;;;;;;;4.35;1.23;;;19.50;63.50;;;;;;5057431;28;20108;-67
2023/10/15 13:13:40;;;;;;;4.25;0.93;;;19.30;63.80;;;;;;5057148;28;20331;-67
2023/10/15 13:16:08;;;;;;;3.70;1.20;;;19.20;64.20;;;;;;5057104;28;20116;-67
2023/10/15 13:18:39;;;;;;;3.72;1.25;;;19.00;64.30;;;;;;5057081;28;20438;-67